Time;durP1;ratioP1;P1;durP2;ratioP2;P2;SDS_P1;SDS_P2;PMS_P1;PMS_P2;Temp;Humidity;BMP_temperature;BMP_pressure;BME280_temperature;BME280_humidity;BME280_pressure;Samples;Min_cycle;Max_cycle;Signal;HPM_P1;HPM_P2
2021/01/09 00:03:13;;;;;;;17.03;7.67;;;1.10;99.90;;;;;;6733297;88;20599;-76
2021/01/09 00:13:13;;;;;;;17.42;7.03;;;1.20;99.90;;;;;;6728607;88;21120;-76
2021/01/09 00:23:14;;;;;;;16.87;7.85;;;1.20;99.90;;;;;;6733083;88;20205;-76
2021/01/09 00:33:15;;;;;;;18.48;7.97;;;1.10;99.90;;;;;;6730957;88;20194;-76
2021/01/09 00:43:15;;;;;;;16.37;7.50;;;1.10;99.90;;;;;;6732951;88;20173;-76
2021/01/09 00:53:16;;;;;;;17.60;7.22;;;1.10;99.90;;;;;;6714986;88;20303;-76
2021/01/09 01:03:16;;;;;;;20.73;8.15;;;1.10;99.90;;;;;;6710860;88;20233;-76
2021/01/09 01:13:17;;;;;;;21.65;8.82;;;1.00;99.90;;;;;;6722104;88;20330;-77
2021/01/09 01:23:18;;;;;;;18.95;8.25;;;1.20;99.90;;;;;;6724043;88;20209;-76
2021/01/09 01:33:19;;;;;;;19.60;7.95;;;1.30;99.90;;;;;;6723878;88;20328;-76
2021/01/09 01:43:19;;;;;;;17.75;7.87;;;1.20;99.90;;;;;;6725117;88;20201;-72
2021/01/09 01:53:20;;;;;;;19.05;8.10;;;1.20;99.90;;;;;;6721013;88;20806;-75
2021/01/09 02:03:21;;;;;;;18.98;7.70;;;1.20;99.90;;;;;;6710377;88;20220;-75
2021/01/09 02:13:35;;;;;;;19.45;8.02;;;1.20;99.90;;;;;;6723110;88;20373;-75
2021/01/09 02:23:35;;;;;;;19.23;8.02;;;1.30;99.90;;;;;;6722535;88;20205;-75
2021/01/09 02:33:37;;;;;;;18.27;7.75;;;1.20;99.90;;;;;;6732719;88;20666;-76
2021/01/09 02:43:37;;;;;;;17.42;8.18;;;1.30;99.90;;;;;;6724114;88;20522;-75
2021/01/09 02:53:38;;;;;;;16.85;7.72;;;1.40;99.90;;;;;;6734193;88;20247;-75
2021/01/09 03:03:38;;;;;;;16.58;7.20;;;1.40;99.90;;;;;;6733438;88;20283;-75
2021/01/09 03:13:39;;;;;;;20.35;7.35;;;1.20;99.90;;;;;;6726728;88;20240;-75
2021/01/09 03:23:39;;;;;;;15.68;7.25;;;1.20;99.90;;;;;;6727358;88;20202;-75
2021/01/09 03:33:40;;;;;;;17.83;8.23;;;1.10;99.90;;;;;;6730904;88;21058;-74
2021/01/09 03:43:40;;;;;;;18.73;7.82;;;1.00;99.90;;;;;;6727937;88;20704;-75
2021/01/09 03:53:41;;;;;;;23.08;8.88;;;1.10;99.90;;;;;;6722047;88;20356;-75
2021/01/09 04:03:41;;;;;;;19.77;8.98;;;0.90;99.90;;;;;;6714156;88;20217;-74
2021/01/09 04:13:42;;;;;;;21.10;8.68;;;0.80;99.90;;;;;;6727068;88;20352;-74
2021/01/09 04:23:42;;;;;;;20.85;9.05;;;0.90;99.90;;;;;;6720562;88;20220;-75
2021/01/09 04:33:43;;;;;;;22.37;9.10;;;0.90;99.90;;;;;;6724009;88;20218;-75
2021/01/09 04:43:44;;;;;;;22.65;9.48;;;1.00;99.90;;;;;;6724055;88;20287;-74
2021/01/09 04:53:47;;;;;;;23.95;10.00;;;1.00;99.90;;;;;;6723901;88;20245;-75
2021/01/09 05:03:48;;;;;;;24.75;10.88;;;1.10;99.90;;;;;;6723390;88;20661;-74
2021/01/09 05:13:49;;;;;;;27.85;10.80;;;1.10;99.90;;;;;;6725918;88;20291;-74
2021/01/09 05:23:58;;;;;;;27.30;11.32;;;1.20;99.90;;;;;;6727105;88;20699;-74
2021/01/09 05:33:58;;;;;;;27.60;11.80;;;1.20;99.90;;;;;;6725329;88;20219;-75
2021/01/09 05:44:07;;;;;;;31.75;12.13;;;1.10;99.90;;;;;;6724135;88;20246;-75
2021/01/09 05:54:07;;;;;;;32.22;12.60;;;1.10;99.90;;;;;;6707869;88;20251;-74
2021/01/09 06:04:20;;;;;;;33.78;13.15;;;1.20;99.90;;;;;;6723535;88;21232;-75
2021/01/09 06:14:25;;;;;;;34.85;13.13;;;1.20;99.90;;;;;;6723401;88;20317;-75
2021/01/09 06:24:26;;;;;;;31.13;12.67;;;1.20;99.90;;;;;;6710598;88;20283;-75
2021/01/09 06:34:29;;;;;;;34.78;12.50;;;1.30;99.90;;;;;;6724382;88;20609;-77
2021/01/09 06:44:30;;;;;;;31.95;11.95;;;1.30;99.90;;;;;;6724427;88;20201;-74
2021/01/09 06:54:39;;;;;;;33.35;12.27;;;1.40;99.90;;;;;;6729837;88;20185;-75
2021/01/09 07:04:54;;;;;;;34.00;12.37;;;1.40;99.90;;;;;;6728972;88;20211;-74
2021/01/09 07:15:01;;;;;;;32.90;12.23;;;1.40;99.90;;;;;;6738950;88;20197;-75
2021/01/09 07:25:05;;;;;;;37.95;13.07;;;1.50;99.90;;;;;;6735028;88;20177;-76
2021/01/09 07:35:06;;;;;;;38.78;12.18;;;1.30;99.90;;;;;;6729165;88;20208;-75
2021/01/09 07:45:12;;;;;;;38.65;13.65;;;1.50;99.90;;;;;;6724427;88;20206;-75
2021/01/09 07:55:17;;;;;;;37.57;12.90;;;1.40;99.90;;;;;;6713870;88;20271;-75
2021/01/09 08:05:21;;;;;;;34.65;12.90;;;1.40;99.90;;;;;;6727641;88;20867;-75
2021/01/09 08:15:22;;;;;;;34.22;12.80;;;1.50;99.90;;;;;;6729025;88;20669;-77
2021/01/09 08:25:24;;;;;;;35.17;12.35;;;1.60;99.90;;;;;;6730382;88;20193;-75
2021/01/09 08:35:25;;;;;;;34.35;13.27;;;1.60;99.90;;;;;;6721457;88;20327;-77
2021/01/09 08:45:46;;;;;;;31.15;11.88;;;1.70;99.90;;;;;;6726610;88;20325;-76
2021/01/09 08:55:49;;;;;;;31.10;11.65;;;1.60;99.90;;;;;;6727805;88;20188;-75
2021/01/09 09:05:50;;;;;;;27.50;11.12;;;1.90;99.90;;;;;;6720793;88;20198;-76
2021/01/09 09:15:52;;;;;;;30.02;11.40;;;2.00;99.90;;;;;;6728518;88;20252;-76
2021/01/09 09:26:03;;;;;;;33.92;12.18;;;2.00;99.90;;;;;;6726351;88;20188;-76
2021/01/09 09:36:07;;;;;;;38.05;13.02;;;2.10;99.90;;;;;;6726551;88;20288;-76
2021/01/09 09:46:08;;;;;;;47.50;14.05;;;2.10;99.90;;;;;;6730286;88;20351;-76
2021/01/09 09:56:16;;;;;;;51.05;15.38;;;2.20;99.90;;;;;;6727811;88;20706;-75
2021/01/09 10:06:17;;;;;;;43.10;13.43;;;2.20;99.90;;;;;;6725193;88;20173;-76
2021/01/09 10:16:18;;;;;;;50.53;14.65;;;2.30;99.90;;;;;;6721712;88;20193;-76
2021/01/09 10:26:25;;;;;;;45.45;14.65;;;2.30;99.90;;;;;;6728079;88;20289;-76
2021/01/09 10:36:28;;;;;;;48.80;15.73;;;2.40;99.90;;;;;;6721764;88;20271;-75
2021/01/09 10:46:29;;;;;;;54.67;16.10;;;2.50;99.90;;;;;;6727638;88;20212;-76
2021/01/09 10:56:30;;;;;;;60.15;17.12;;;2.50;99.90;;;;;;6718388;88;20227;-74
2021/01/09 11:06:31;;;;;;;62.78;17.00;;;2.70;99.90;;;;;;6722601;88;20213;-74
2021/01/09 11:16:31;;;;;;;56.67;16.37;;;2.70;99.90;;;;;;6734239;88;20163;-76
2021/01/09 11:26:32;;;;;;;52.35;16.25;;;2.70;99.90;;;;;;6727244;88;20569;-77
2021/01/09 11:36:32;;;;;;;46.42;14.35;;;2.90;99.90;;;;;;6739371;88;20663;-74
2021/01/09 11:46:33;;;;;;;43.75;14.40;;;3.00;99.90;;;;;;6737062;88;20649;-76
2021/01/09 11:56:33;;;;;;;41.75;13.85;;;3.20;99.90;;;;;;6743378;88;20181;-79
2021/01/09 12:06:34;;;;;;;58.17;16.02;;;3.30;99.90;;;;;;6724334;88;20233;-76
2021/01/09 12:16:34;;;;;;;45.92;13.55;;;2.90;99.90;;;;;;6716891;88;20561;-76
2021/01/09 12:26:35;;;;;;;42.83;13.52;;;2.80;99.90;;;;;;6714926;88;20223;-75
2021/01/09 12:36:35;;;;;;;39.13;12.52;;;2.70;99.90;;;;;;6718865;88;20385;-77
2021/01/09 12:46:42;;;;;;;39.13;12.45;;;2.80;99.90;;;;;;6734134;88;20268;-77
2021/01/09 12:56:44;;;;;;;38.95;12.37;;;2.90;99.90;;;;;;6740117;88;20240;-80
2021/01/09 13:06:50;;;;;;;40.15;12.07;;;3.00;99.90;;;;;;6741252;88;20201;-79
2021/01/09 13:16:53;;;;;;;41.60;13.07;;;3.10;99.90;;;;;;6735414;88;20220;-77
2021/01/09 13:26:53;;;;;;;43.42;13.65;;;3.20;99.90;;;;;;6739957;88;20207;-78
2021/01/09 13:36:54;;;;;;;39.42;12.68;;;3.10;99.90;;;;;;6735870;88;20222;-77
2021/01/09 13:46:54;;;;;;;35.95;12.40;;;3.10;99.90;;;;;;6739510;88;20244;-80
2021/01/09 13:56:55;;;;;;;41.47;13.82;;;3.00;99.90;;;;;;6735392;88;20205;-81
2021/01/09 14:06:55;;;;;;;42.05;15.02;;;2.90;99.90;;;;;;6738730;88;20198;-80
2021/01/09 14:16:57;;;;;;;35.30;12.73;;;3.00;99.90;;;;;;6737156;88;20200;-78
2021/01/09 14:26:58;;;;;;;36.10;14.27;;;2.90;99.90;;;;;;6735075;88;20267;-77
2021/01/09 14:37:03;;;;;;;36.83;13.15;;;3.00;99.90;;;;;;6735540;88;20211;-78
2021/01/09 14:47:03;;;;;;;36.33;12.45;;;2.90;99.90;;;;;;6735335;88;20283;-78
2021/01/09 14:57:04;;;;;;;41.17;13.85;;;2.70;99.90;;;;;;6731582;88;20208;-78
2021/01/09 15:07:05;;;;;;;36.67;12.15;;;2.60;99.90;;;;;;6731702;88;20192;-79
2021/01/09 15:17:06;;;;;;;39.67;13.48;;;2.50;99.90;;;;;;6743033;88;20223;-78
2021/01/09 15:27:06;;;;;;;36.95;12.55;;;2.60;99.90;;;;;;6738838;88;20219;-77
2021/01/09 15:37:07;;;;;;;37.53;12.73;;;2.50;99.90;;;;;;6742102;88;20201;-82
2021/01/09 15:47:08;;;;;;;38.60;13.60;;;2.50;99.90;;;;;;6738156;88;20532;-78
2021/01/09 15:57:09;;;;;;;40.00;13.40;;;2.40;99.90;;;;;;6743590;88;20218;-77
2021/01/09 16:07:09;;;;;;;39.42;14.63;;;2.40;99.90;;;;;;6748985;88;20201;-77
2021/01/09 16:17:10;;;;;;;41.72;14.13;;;2.50;99.90;;;;;;6737349;88;20304;-78
2021/01/09 16:27:11;;;;;;;40.55;14.60;;;2.30;99.90;;;;;;6736850;88;20173;-77
2021/01/09 16:37:11;;;;;;;40.65;15.10;;;2.60;99.90;;;;;;6737008;88;20212;-77
2021/01/09 16:47:12;;;;;;;42.20;14.75;;;2.50;99.90;;;;;;6736172;88;20173;-78
2021/01/09 16:57:12;;;;;;;43.13;14.40;;;2.50;99.90;;;;;;6736837;88;20294;-78
2021/01/09 17:07:13;;;;;;;39.90;14.25;;;2.60;99.90;;;;;;6724993;88;20185;-78
2021/01/09 17:17:15;;;;;;;44.88;14.40;;;2.50;99.90;;;;;;6734101;88;20186;-78
2021/01/09 17:27:16;;;;;;;48.60;17.25;;;2.60;99.90;;;;;;6734817;88;20190;-78
2021/01/09 17:37:17;;;;;;;36.38;14.32;;;2.50;99.90;;;;;;6737313;88;20213;-77
2021/01/09 17:47:17;;;;;;;31.70;13.88;;;2.60;99.90;;;;;;6730158;88;20311;-79
2021/01/09 17:57:18;;;;;;;33.03;12.77;;;2.70;99.90;;;;;;6730772;88;20209;-78
2021/01/09 18:07:18;;;;;;;38.83;13.85;;;2.70;99.90;;;;;;6729588;88;20203;-77
2021/01/09 18:17:19;;;;;;;37.38;13.32;;;2.70;99.90;;;;;;6730805;88;20267;-77
2021/01/09 18:27:19;;;;;;;33.47;12.48;;;2.60;99.90;;;;;;6729781;88;20217;-78
2021/01/09 18:37:20;;;;;;;43.15;15.18;;;2.60;99.90;;;;;;6726525;88;20216;-77
2021/01/09 18:47:20;;;;;;;43.08;15.80;;;2.70;99.90;;;;;;6726054;88;20785;-74
2021/01/09 18:57:21;;;;;;;46.13;15.35;;;2.70;99.90;;;;;;6743171;88;20202;-76
2021/01/09 19:07:22;;;;;;;37.55;13.82;;;2.70;99.90;;;;;;6726080;88;20313;-76
2021/01/09 19:17:22;;;;;;;43.65;16.73;;;2.60;99.90;;;;;;6724673;88;20341;-74
2021/01/09 19:27:27;;;;;;;46.80;14.95;;;2.70;99.90;;;;;;6720037;88;20201;-75
2021/01/09 19:37:27;;;;;;;36.95;14.05;;;2.60;99.90;;;;;;6726065;88;20552;-75
2021/01/09 19:47:28;;;;;;;46.13;13.90;;;2.50;99.90;;;;;;6730108;88;20603;-75
2021/01/09 19:57:28;;;;;;;47.58;15.23;;;2.40;99.90;;;;;;6731626;88;20736;-75
2021/01/09 20:07:29;;;;;;;40.20;14.75;;;2.30;99.90;;;;;;6725673;88;21287;-75
2021/01/09 20:17:33;;;;;;;45.95;15.32;;;2.50;99.90;;;;;;6732976;77;20239;-73
2021/01/09 20:27:35;;;;;;;41.45;15.13;;;2.50;99.90;;;;;;6730696;88;20216;-77
2021/01/09 20:37:39;;;;;;;42.05;16.48;;;2.50;99.90;;;;;;6741487;88;20650;-76
2021/01/09 20:47:41;;;;;;;45.03;16.10;;;2.50;99.90;;;;;;6753897;88;20908;-76
2021/01/09 20:57:43;;;;;;;47.62;16.20;;;2.50;99.90;;;;;;6763577;88;20731;-77
2021/01/09 21:07:43;;;;;;;46.83;15.73;;;2.60;99.90;;;;;;6760478;88;20229;-78
2021/01/09 21:17:44;;;;;;;49.20;16.55;;;2.60;99.90;;;;;;6732303;88;20236;-77
2021/01/09 21:27:45;;;;;;;46.28;16.95;;;2.60;99.90;;;;;;6729807;88;20271;-77
2021/01/09 21:37:45;;;;;;;49.17;16.45;;;2.60;99.90;;;;;;6729124;88;20185;-77
2021/01/09 21:47:46;;;;;;;46.80;15.43;;;2.60;99.90;;;;;;6729570;88;20600;-77
2021/01/09 21:57:46;;;;;;;45.95;15.55;;;2.60;99.90;;;;;;6729460;88;20223;-78
2021/01/09 22:07:47;;;;;;;44.17;16.08;;;2.60;99.90;;;;;;6728801;88;20202;-78
2021/01/09 22:17:48;;;;;;;45.08;16.60;;;2.50;99.90;;;;;;6727847;88;20229;-78
2021/01/09 22:27:50;;;;;;;49.45;17.70;;;2.30;99.90;;;;;;6731945;88;20209;-78
2021/01/09 22:37:51;;;;;;;49.25;17.20;;;2.50;99.90;;;;;;6744392;88;20196;-78
2021/01/09 22:47:52;;;;;;;58.10;17.73;;;2.50;99.90;;;;;;6744065;88;20982;-77
2021/01/09 22:57:54;;;;;;;57.08;19.02;;;2.50;99.90;;;;;;6742432;88;20360;-79
2021/01/09 23:07:55;;;;;;;61.63;18.87;;;2.40;99.90;;;;;;6744188;88;20209;-78
2021/01/09 23:17:55;;;;;;;57.95;19.20;;;2.30;99.90;;;;;;6747834;88;20210;-79
2021/01/09 23:27:57;;;;;;;57.55;17.85;;;2.30;99.90;;;;;;6752204;88;20169;-79
2021/01/09 23:37:57;;;;;;;58.55;18.77;;;2.30;99.90;;;;;;6748274;88;20193;-78
2021/01/09 23:47:58;;;;;;;64.97;20.50;;;2.30;99.90;;;;;;6750094;88;20189;-78
2021/01/09 23:57:59;;;;;;;67.65;20.83;;;2.30;99.90;;;;;;6745682;88;20509;-79
